Time;durP1;ratioP1;P1;durP2;ratioP2;P2;SDS_P1;SDS_P2;PMS_P1;PMS_P2;Temp;Humidity;BMP_temperature;BMP_pressure;BME280_temperature;BME280_humidity;BME280_pressure;Samples;Min_cycle;Max_cycle;Signal;HPM_P1;HPM_P2
2021/04/13 00:02:20;;;;;;;15.85;7.75;;;0.50;1.00;;;;;;5059179;28;20549;-75
2021/04/13 00:04:49;;;;;;;14.77;7.75;;;;;;;;;;5075780;28;20208;-76
2021/04/13 00:07:15;;;;;;;16.05;7.88;;;0.40;1.00;;;;;;5073470;28;20174;-75
2021/04/13 00:09:42;;;;;;;20.05;7.50;;;;;;;;;;5074398;28;20171;-75
2021/04/13 00:12:13;;;;;;;13.30;7.20;;;0.50;1.00;;;;;;5055423;28;20391;-76
2021/04/13 00:14:44;;;;;;;12.75;7.07;;;0.50;1.00;;;;;;5060167;28;20198;-75
2021/04/13 00:17:13;;;;;;;17.40;8.65;;;0.40;1.00;;;;;;5072445;28;20353;-76
2021/04/13 00:19:57;;;;;;;15.85;7.55;;;;;;;;;;5070009;28;20195;-76
2021/04/13 00:22:24;;;;;;;20.48;9.48;;;;;;;;;;5074107;28;20282;-75
2021/04/13 00:24:51;;;;;;;17.58;8.25;;;0.30;1.00;;;;;;5067119;28;20229;-76
2021/04/13 00:27:20;;;;;;;15.88;7.50;;;0.30;1.00;;;;;;5074536;28;20697;-75
2021/04/13 00:29:46;;;;;;;16.83;7.75;;;;;;;;;;5056922;28;20180;-75
2021/04/13 00:32:12;;;;;;;14.30;8.20;;;;;;;;;;5054043;28;20176;-75
2021/04/13 00:37:36;;;;;;;16.67;8.80;;;;;;;;;;5021492;28;20597;-75
2021/04/13 00:40:24;;;;;;;13.65;7.57;;;0.30;1.00;;;;;;5025906;28;20644;-76
2021/04/13 00:42:53;;;;;;;16.10;7.60;;;0.20;1.00;;;;;;5013206;28;20192;-76
2021/04/13 00:45:24;;;;;;;17.70;7.60;;;0.20;1.00;;;;;;5012826;28;20579;-76
2021/04/13 00:47:50;;;;;;;13.90;7.45;;;;;;;;;;5013766;28;20177;-75
2021/04/13 00:50:49;;;;;;;17.48;8.60;;;0.20;1.00;;;;;;5012905;28;20193;-75
2021/04/13 00:53:18;;;;;;;16.15;8.23;;;;;;;;;;5010994;28;20189;-77
2021/04/13 00:55:56;;;;;;;17.98;8.23;;;0.10;1.00;;;;;;5020573;28;20217;-77
2021/04/13 00:58:24;;;;;;;13.45;7.40;;;0.10;1.00;;;;;;5003252;28;20212;-77
2021/04/13 01:00:56;;;;;;;16.52;8.18;;;0.10;1.00;;;;;;5020911;28;20792;-77
2021/04/13 01:03:22;;;;;;;15.55;8.30;;;;;;;;;;5013073;28;20264;-77
2021/04/13 01:05:55;;;;;;;11.50;6.88;;;0.00;1.00;;;;;;5013233;28;20171;-77
2021/04/13 01:08:24;;;;;;;15.80;7.75;;;;;;;;;;5012602;28;20716;-78
2021/04/13 01:10:52;;;;;;;15.20;8.43;;;;;;;;;;5029373;28;20184;-77
2021/04/13 01:13:28;;;;;;;16.23;8.00;;;-0.10;1.00;;;;;;5034469;28;20535;-77
2021/04/13 01:15:54;;;;;;;12.95;7.60;;;;;;;;;;5056495;28;20178;-78
2021/04/13 01:18:23;;;;;;;22.15;9.38;;;;;;;;;;5054290;28;20506;-77
2021/04/13 01:21:06;;;;;;;18.63;8.95;;;-0.10;1.00;;;;;;5071333;28;20206;-75
2021/04/13 01:23:51;;;;;;;20.20;9.50;;;-0.10;1.00;;;;;;5074445;28;20151;-77
2021/04/13 01:26:18;;;;;;;16.90;8.90;;;;;;;;;;5060428;28;20264;-77
2021/04/13 01:28:44;;;;;;;16.88;8.05;;;;;;;;;;5054122;28;20190;-77
2021/04/13 01:31:10;;;;;;;14.15;7.63;;;;;;;;;;5054153;28;20243;-77
2021/04/13 01:33:43;;;;;;;17.95;8.98;;;;;;;;;;5062840;28;20532;-77
2021/04/13 01:36:40;;;;;;;15.82;8.20;;;-0.20;1.00;;;;;;5064359;28;20258;-77
2021/04/13 01:39:09;;;;;;;19.05;8.80;;;;;;;;;;5067791;28;20211;-78
2021/04/13 01:41:46;;;;;;;17.63;8.13;;;;;;;;;;5073645;28;20194;-77
2021/04/13 01:44:13;;;;;;;17.60;8.98;;;;;;;;;;5073832;28;20486;-78
2021/04/13 01:46:40;;;;;;;22.58;8.55;;;-0.30;1.00;;;;;;5071218;28;20203;-78
2021/04/13 01:49:12;;;;;;;13.48;7.38;;;;;;;;;;5047181;28;20191;-77
2021/04/13 01:51:42;;;;;;;21.70;8.35;;;;;;;;;;5050713;28;20180;-77
2021/04/13 01:54:15;;;;;;;17.95;8.35;;;-0.30;1.00;;;;;;5033153;28;20242;-77
2021/04/13 01:57:11;;;;;;;14.60;7.55;;;-0.30;1.00;;;;;;5059464;28;20178;-77
2021/04/13 01:59:50;;;;;;;14.93;8.18;;;-0.30;1.00;;;;;;5051268;28;20200;-77
2021/04/13 02:02:27;;;;;;;18.08;7.85;;;-0.40;1.00;;;;;;5045380;28;20176;-77
2021/04/13 02:04:59;;;;;;;18.05;8.27;;;-0.30;1.00;;;;;;5045189;28;20213;-78
2021/04/13 02:11:10;;;;;;;20.58;9.68;;;-0.40;1.00;;;;;;5031030;28;20180;-77
2021/04/13 02:13:58;;;;;;;18.83;9.50;;;-0.40;1.00;;;;;;4953287;29;20330;-77
2021/04/13 02:16:42;;;;;;;17.33;9.13;;;;;;;;;;4952961;29;20187;-77
2021/04/13 02:19:10;;;;;;;16.90;8.85;;;-0.40;1.00;;;;;;4955007;28;20799;-77
2021/04/13 02:21:40;;;;;;;17.92;9.00;;;-0.40;1.00;;;;;;4953089;29;20163;-75
2021/04/13 02:24:13;;;;;;;14.50;8.00;;;-0.30;1.00;;;;;;4962778;28;20229;-75
2021/04/13 02:26:49;;;;;;;18.50;8.65;;;-0.30;1.00;;;;;;4959530;28;20206;-75
2021/04/13 02:29:16;;;;;;;20.58;8.50;;;;;;;;;;4967649;28;20190;-76
2021/04/13 02:31:49;;;;;;;18.45;8.43;;;;;;;;;;4972260;28;20162;-76
2021/04/13 02:34:21;;;;;;;16.95;8.57;;;-0.40;1.00;;;;;;4968041;28;20210;-76
2021/04/13 02:36:48;;;;;;;20.48;9.27;;;;;;;;;;4985923;28;20189;-75
2021/04/13 02:39:18;;;;;;;14.23;8.20;;;-0.40;1.00;;;;;;4998095;28;20292;-75
2021/04/13 02:41:48;;;;;;;19.70;9.25;;;;;;;;;;4994374;28;20173;-76
2021/04/13 02:44:17;;;;;;;17.05;7.57;;;-0.50;1.00;;;;;;5011029;28;20176;-76
2021/04/13 02:46:43;;;;;;;19.42;8.13;;;;;;;;;;5008922;28;20223;-75
2021/04/13 02:49:12;;;;;;;17.42;8.55;;;-0.50;1.00;;;;;;5011743;28;20192;-76
2021/04/13 02:51:52;;;;;;;16.10;8.63;;;-0.50;1.00;;;;;;5053361;28;20525;-77
2021/04/13 02:54:23;;;;;;;23.05;8.50;;;-0.50;1.00;;;;;;5039330;28;20184;-77
2021/04/13 02:56:51;;;;;;;17.58;8.13;;;;;;;;;;5066412;28;20178;-77
2021/04/13 02:59:17;;;;;;;16.98;8.32;;;;;;;;;;5032878;28;20187;-77
2021/04/13 03:01:49;;;;;;;15.27;7.30;;;;;;;;;;5048524;28;20168;-77
2021/04/13 03:04:17;;;;;;;19.90;8.07;;;-0.50;1.00;;;;;;5061558;28;20174;-77
2021/04/13 03:06:46;;;;;;;16.35;8.00;;;-0.50;1.00;;;;;;5062873;28;20179;-77
2021/04/13 03:09:14;;;;;;;17.00;7.80;;;-0.50;1.00;;;;;;5055733;28;20690;-75
2021/04/13 03:11:48;;;;;;;14.95;7.68;;;;;;;;;;5060406;28;20611;-75
2021/04/13 03:14:17;;;;;;;19.08;8.18;;;-0.60;1.00;;;;;;5071299;28;20253;-75
2021/04/13 03:16:45;;;;;;;13.45;7.47;;;-0.60;1.00;;;;;;5072545;28;20152;-76
2021/04/13 03:19:15;;;;;;;16.30;7.72;;;-0.70;1.00;;;;;;5054508;28;20213;-76
2021/04/13 03:21:50;;;;;;;14.50;8.02;;;-0.70;1.00;;;;;;5071996;28;20174;-76
2021/04/13 03:24:38;;;;;;;13.90;7.50;;;-0.70;1.00;;;;;;5071287;28;20182;-76
2021/04/13 03:27:09;;;;;;;15.38;7.47;;;-0.70;1.00;;;;;;5070720;28;20631;-75
2021/04/13 03:29:44;;;;;;;16.15;7.95;;;;;;;;;;5071722;28;20264;-76
2021/04/13 03:34:42;;;;;;;17.83;7.40;;;-0.60;1.00;;;;;;5046878;28;20595;-75
2021/04/13 03:37:08;;;;;;;14.63;7.75;;;;;;;;;;5053053;28;20215;-77
2021/04/13 03:39:38;;;;;;;12.30;7.32;;;;;;;;;;5052551;28;20160;-77
2021/04/13 03:42:05;;;;;;;13.25;6.85;;;-0.70;1.00;;;;;;5052354;28;20172;-77
2021/04/13 03:44:36;;;;;;;12.82;6.97;;;-0.80;1.00;;;;;;5053220;28;20702;-75
2021/04/13 03:47:02;;;;;;;14.27;7.53;;;;;;;;;;5056395;28;20202;-76
2021/04/13 03:49:34;;;;;;;14.05;7.65;;;-0.90;1.00;;;;;;5071807;28;20199;-76
2021/04/13 03:52:13;;;;;;;11.85;7.50;;;-0.90;1.00;;;;;;5066717;28;20722;-76
2021/04/13 03:54:40;;;;;;;16.05;8.23;;;-0.90;1.00;;;;;;5039357;28;20267;-75
2021/04/13 03:57:07;;;;;;;13.13;7.30;;;-1.00;1.00;;;;;;5052032;28;20187;-75
2021/04/13 03:59:39;;;;;;;15.05;8.15;;;-1.00;1.00;;;;;;5062563;28;20366;-75
2021/04/13 04:02:06;;;;;;;14.05;7.68;;;-1.10;1.00;;;;;;5055694;28;20164;-83
2021/04/13 04:04:42;;;;;;;16.92;7.65;;;-1.20;1.00;;;;;;5073049;28;20198;-76
2021/04/13 04:07:39;;;;;;;15.38;7.22;;;-1.20;1.00;;;;;;5075778;28;20676;-76
2021/04/13 04:10:41;;;;;;;13.23;7.05;;;-1.30;1.00;;;;;;5070584;28;20200;-78
2021/04/13 04:13:28;;;;;;;14.02;7.82;;;-1.30;1.00;;;;;;5057265;28;20171;-78
2021/04/13 04:16:19;;;;;;;13.57;7.18;;;-1.30;1.00;;;;;;5075768;28;20151;-78
2021/04/13 04:18:50;;;;;;;12.68;7.68;;;-1.30;1.00;;;;;;5072248;28;20175;-78
2021/04/13 04:21:40;;;;;;;17.45;7.78;;;-1.20;1.00;;;;;;5055897;28;20791;-78
2021/04/13 04:24:26;;;;;;;15.23;7.95;;;-1.10;1.00;;;;;;5055836;28;20160;-78
2021/04/13 04:26:55;;;;;;;17.02;7.82;;;-1.20;1.00;;;;;;5053774;28;20575;-78
2021/04/13 04:29:42;;;;;;;14.45;7.50;;;-1.20;1.00;;;;;;5061823;28;20232;-78
2021/04/13 04:32:16;;;;;;;13.95;7.93;;;-1.20;1.00;;;;;;5075268;28;20182;-79
2021/04/13 04:34:45;;;;;;;13.98;7.38;;;-1.20;1.00;;;;;;5060293;28;20171;-78
2021/04/13 04:37:55;;;;;;;14.45;7.65;;;-1.10;1.00;;;;;;5055150;28;20180;-78
2021/04/13 04:40:26;;;;;;;13.93;7.60;;;;;;;;;;5056022;28;20171;-78
2021/04/13 04:43:04;;;;;;;19.60;7.72;;;;;;;;;;5051809;28;20619;-78
2021/04/13 04:48:01;;;;;;;18.10;8.70;;;;;;;;;;5054966;28;20593;-78
2021/04/13 04:50:27;;;;;;;13.30;7.30;;;;;;;;;;5051423;28;20207;-78
2021/04/13 04:52:53;;;;;;;16.77;7.85;;;;;;;;;;5055246;28;20179;-75
2021/04/13 04:55:19;;;;;;;14.35;7.00;;;;;;;;;;5048454;28;20180;-85
2021/04/13 04:57:45;;;;;;;20.23;7.57;;;;;;;;;;5033428;28;20234;-83
2021/04/13 05:00:11;;;;;;;14.40;6.90;;;;;;;;;;5033666;28;20176;-83
2021/04/13 05:02:37;;;;;;;11.00;6.65;;;;;;;;;;5055452;28;20168;-83
2021/04/13 05:05:04;;;;;;;12.77;7.57;;;;;;;;;;5053567;28;20168;-83
2021/04/13 05:07:30;;;;;;;12.38;6.68;;;;;;;;;;5055890;28;20663;-75
2021/04/13 05:09:56;;;;;;;13.00;6.67;;;;;;;;;;5042509;28;20218;-77
2021/04/13 05:14:47;;;;;;;21.43;7.87;;;;;;;;;;5061518;28;20454;-78
2021/04/13 05:17:13;;;;;;;14.15;6.53;;;;;;;;;;5049700;28;20172;-77
2021/04/13 05:19:39;;;;;;;13.63;6.78;;;-0.10;1.00;;;;;;5062453;28;20167;-77
2021/04/13 05:22:05;;;;;;;12.67;7.73;;;;;;;;;;5056982;28;20183;-77
2021/04/13 05:24:31;;;;;;;13.10;6.87;;;;;;;;;;5056696;28;20180;-76
2021/04/13 05:26:57;;;;;;;12.53;6.60;;;;;;;;;;5053211;28;20781;-76
2021/04/13 05:29:30;;;;;;;42.65;11.10;;;0.40;1.00;;;;;;5043529;28;20493;-75
2021/04/13 05:31:55;;;;;;;11.77;6.93;;;0.40;1.00;;;;;;5045881;28;20267;-75
2021/04/13 05:34:21;;;;;;;11.23;6.37;;;;;;;;;;5056099;28;20271;-75
2021/04/13 05:36:51;;;;;;;10.35;5.45;;;0.50;1.00;;;;;;5046120;28;20302;-75
2021/04/13 05:39:18;;;;;;;9.75;5.68;;;0.60;1.00;;;;;;5071576;28;20186;-77
2021/04/13 05:41:44;;;;;;;10.52;5.93;;;;;;;;;;5057287;28;20200;-77
2021/04/13 05:44:09;;;;;;;12.13;6.13;;;0.70;1.00;;;;;;5057088;28;20172;-77
2021/04/13 05:46:38;;;;;;;10.17;5.97;;;0.80;1.00;;;;;;5073215;28;20162;-77
2021/04/13 05:49:04;;;;;;;11.63;6.68;;;;;;;;;;5052742;28;20253;-84
2021/04/13 05:51:29;;;;;;;10.63;5.95;;;0.90;1.00;;;;;;5054041;28;20171;-84
2021/04/13 05:53:56;;;;;;;13.80;6.70;;;1.00;1.00;;;;;;5057987;28;20175;-77
2021/04/13 05:56:28;;;;;;;11.77;6.93;;;;;;;;;;5046619;28;20262;-77
2021/04/13 05:58:55;;;;;;;15.88;6.68;;;;;;;;;;5047557;28;20283;-77
2021/04/13 06:01:27;;;;;;;9.57;4.63;;;2.90;1.00;;;;;;5053255;28;20186;-78
2021/04/13 06:04:09;;;;;;;25.50;8.50;;;4.40;1.00;;;;;;5062687;28;20191;-78
2021/04/13 06:06:48;;;;;;;26.27;10.68;;;5.60;1.00;;;;;;5054284;28;20611;-78
2021/04/13 06:09:20;;;;;;;18.15;7.05;;;6.30;1.00;;;;;;5054191;28;20727;-75
2021/04/13 06:11:57;;;;;;;11.67;5.20;;;6.80;1.00;;;;;;5065792;28;20174;-76
2021/04/13 06:14:24;;;;;;;12.10;5.17;;;6.50;1.00;;;;;;5066462;28;20409;-76
2021/04/13 06:16:51;;;;;;;13.43;5.38;;;;;;;;;;5052054;28;20494;-75
2021/04/13 06:19:17;;;;;;;9.07;5.13;;;;;;;;;;5032623;28;20528;-77
2021/04/13 06:21:43;;;;;;;8.23;5.22;;;;;;;;;;5032987;28;20863;-77
2021/04/13 06:24:10;;;;;;;8.13;5.15;;;5.10;1.00;;;;;;5041488;28;20183;-78
2021/04/13 06:26:36;;;;;;;11.80;5.78;;;;;;;;;;5053356;28;20257;-77
2021/04/13 06:29:06;;;;;;;7.78;4.78;;;4.70;1.00;;;;;;5052401;28;20199;-77
2021/04/13 06:31:32;;;;;;;8.80;4.97;;;;;;;;;;5052809;28;20632;-77
2021/04/13 06:33:58;;;;;;;9.50;5.25;;;;;;;;;;5053131;28;20195;-77
2021/04/13 06:36:26;;;;;;;13.53;5.43;;;4.20;1.00;;;;;;5053171;28;20152;-77
2021/04/13 06:38:53;;;;;;;8.52;5.03;;;4.00;1.00;;;;;;5053475;28;20495;-75
2021/04/13 06:41:45;;;;;;;14.25;6.22;;;4.00;1.00;;;;;;5053440;28;20224;-75
2021/04/13 06:44:41;;;;;;;14.95;6.70;;;3.90;1.00;;;;;;5066086;28;20178;-75
2021/04/13 06:47:22;;;;;;;12.75;6.63;;;3.80;1.00;;;;;;5071009;28;20628;-75
2021/04/13 06:50:04;;;;;;;20.25;8.32;;;3.90;1.00;;;;;;5058727;28;20196;-75
2021/04/13 06:52:38;;;;;;;13.23;8.35;;;3.90;1.00;;;;;;5066703;28;20240;-76
2021/04/13 06:55:28;;;;;;;15.35;7.20;;;3.80;1.00;;;;;;5055377;28;20662;-75
2021/04/13 06:58:03;;;;;;;14.77;7.65;;;;;;;;;;5043064;28;20188;-75
2021/04/13 07:00:29;;;;;;;13.40;7.10;;;;;;;;;;5032830;28;20191;-75
2021/04/13 07:03:04;;;;;;;15.73;8.00;;;;;;;;;;5032856;28;20156;-77
2021/04/13 07:05:49;;;;;;;18.00;7.40;;;;;;;;;;5032787;28;20754;-77
2021/04/13 07:08:23;;;;;;;16.90;7.60;;;;;;;;;;5032532;28;20161;-77
2021/04/13 07:10:54;;;;;;;18.20;8.40;;;;;;;;;;5032999;28;20188;-75
2021/04/13 07:13:20;;;;;;;15.38;7.40;;;;;;;;;;5032149;28;20243;-75
2021/04/13 07:16:26;;;;;;;18.50;9.20;;;4.30;1.00;;;;;;5032594;28;20644;-75
2021/04/13 07:19:00;;;;;;;19.58;8.13;;;;;;;;;;5026230;28;20871;-76
2021/04/13 07:21:38;;;;;;;17.48;7.70;;;;;;;;;;5029960;28;20164;-76
2021/04/13 07:24:53;;;;;;;18.30;8.98;;;4.50;1.00;;;;;;5030222;28;20274;-75
2021/04/13 07:27:55;;;;;;;14.30;8.05;;;4.70;1.00;;;;;;4932460;29;20747;-75
2021/04/13 07:30:33;;;;;;;15.20;8.65;;;4.80;1.00;;;;;;4876089;29;20231;-75
2021/04/13 07:32:59;;;;;;;16.63;7.13;;;;;;;;;;4876571;29;20162;-75
2021/04/13 07:35:29;;;;;;;37.92;8.50;;;;;;;;;;4877404;29;20190;-75
2021/04/13 07:37:56;;;;;;;14.60;7.82;;;5.00;1.00;;;;;;4880218;29;20190;-75
2021/04/13 07:40:34;;;;;;;15.30;8.47;;;5.10;1.00;;;;;;4880288;29;20713;-75
2021/04/13 07:43:04;;;;;;;19.92;9.13;;;;;;;;;;4879923;29;20520;-75
2021/04/13 07:46:04;;;;;;;17.13;8.40;;;5.20;1.00;;;;;;4880139;29;20169;-75
2021/04/13 07:48:36;;;;;;;19.57;8.23;;;;;;;;;;4879899;29;20182;-75
2021/04/13 07:51:17;;;;;;;16.88;7.60;;;5.40;1.00;;;;;;4879958;29;20410;-75
2021/04/13 07:54:10;;;;;;;12.95;6.32;;;5.40;1.00;;;;;;4879845;29;20640;-75
2021/04/13 07:56:47;;;;;;;8.20;4.60;;;5.40;1.00;;;;;;4898340;29;20639;-75
2021/04/13 07:59:43;;;;;;;18.20;4.90;;;5.50;1.00;;;;;;4901780;29;20188;-75
2021/04/13 08:02:09;;;;;;;6.40;4.37;;;;;;;;;;4917201;29;20183;-77
2021/04/13 08:04:35;;;;;;;11.47;5.63;;;;;;;;;;4974520;28;20504;-77
2021/04/13 08:07:01;;;;;;;8.75;4.72;;;;;;;;;;5012032;28;20421;-77
2021/04/13 08:09:34;;;;;;;9.80;4.53;;;;;;;;;;5036001;28;20184;-75
2021/04/13 08:12:15;;;;;;;12.80;5.70;;;;;;;;;;5044705;28;20437;-77
2021/04/13 08:14:43;;;;;;;8.53;4.67;;;;;;;;;;5055694;28;20397;-76
2021/04/13 08:17:17;;;;;;;11.50;6.23;;;5.90;1.00;;;;;;5054246;28;20960;-76
2021/04/13 08:19:44;;;;;;;9.80;4.77;;;;;;;;;;5055660;28;20614;-76
2021/04/13 08:22:19;;;;;;;9.13;4.90;;;6.20;1.00;;;;;;5055303;28;20477;-77
2021/04/13 08:24:50;;;;;;;12.63;5.40;;;6.30;1.00;;;;;;5055848;28;20417;-74
2021/04/13 08:27:28;;;;;;;5.40;3.10;;;;;;;;;;5054816;28;20772;-76
2021/04/13 08:30:00;;;;;;;9.70;3.83;;;;;;;;;;5055043;28;20454;-77
2021/04/13 08:33:02;;;;;;;6.63;3.50;;;6.60;1.00;;;;;;5055433;28;20382;-77
2021/04/13 08:35:32;;;;;;;9.20;4.37;;;6.90;1.00;;;;;;5053345;28;20382;-76
2021/04/13 08:37:58;;;;;;;11.80;2.70;;;;;;;;;;5034026;28;20399;-76
2021/04/13 08:40:34;;;;;;;4.87;2.37;;;7.20;1.00;;;;;;5035452;28;20752;-76
2021/04/13 08:43:15;;;;;;;4.43;1.73;;;7.30;1.00;;;;;;5035258;28;20599;-76
2021/04/13 08:45:46;;;;;;;3.13;1.80;;;7.40;1.00;;;;;;5035088;28;20423;-76
2021/04/13 08:48:26;;;;;;;2.70;1.53;;;7.50;1.00;;;;;;5035198;28;20465;-76
2021/04/13 08:51:11;;;;;;;1.50;1.40;;;7.60;1.00;;;;;;5035032;28;20934;-76
2021/04/13 08:53:42;;;;;;;2.53;1.83;;;7.60;1.00;;;;;;5033808;28;20403;-76
2021/04/13 08:56:23;;;;;;;23.63;4.93;;;7.60;1.00;;;;;;5034523;28;20383;-76
2021/04/13 08:58:52;;;;;;;4.77;2.87;;;7.80;1.00;;;;;;5048371;28;20901;-76
2021/04/13 09:01:34;;;;;;;3.23;2.30;;;7.80;1.00;;;;;;5035722;28;20871;-76
2021/04/13 09:04:02;;;;;;;3.83;2.50;;;8.00;1.00;;;;;;5050448;28;20413;-76
2021/04/13 09:06:51;;;;;;;8.17;2.80;;;8.20;1.00;;;;;;5055790;28;20425;-76
2021/04/13 09:09:41;;;;;;;5.90;2.53;;;8.40;1.00;;;;;;5074563;28;20448;-76
2021/04/13 09:12:28;;;;;;;6.40;2.40;;;8.50;1.00;;;;;;5071324;28;20418;-75
2021/04/13 09:15:09;;;;;;;3.27;2.50;;;8.50;1.00;;;;;;5073883;28;20421;-75
2021/04/13 09:18:18;;;;;;;9.10;2.30;;;8.20;1.00;;;;;;5068682;28;20438;-76
2021/04/13 09:20:59;;;;;;;2.03;1.90;;;7.90;1.00;;;;;;5053303;28;20412;-76
2021/04/13 09:23:45;;;;;;;3.47;1.90;;;7.90;1.00;;;;;;5053797;28;20763;-76
2021/04/13 09:26:43;;;;;;;4.17;1.97;;;7.70;1.00;;;;;;5055141;28;20421;-75
2021/04/13 09:29:31;;;;;;;4.47;1.80;;;7.50;1.00;;;;;;5024847;28;20475;-75
2021/04/13 09:31:58;;;;;;;3.13;1.80;;;7.70;1.00;;;;;;5031697;28;20510;-75
2021/04/13 09:34:33;;;;;;;3.50;2.03;;;;;;;;;;5014580;28;20428;-75
2021/04/13 09:37:17;;;;;;;9.37;2.60;;;;;;;;;;5013102;28;20416;-75
2021/04/13 09:39:43;;;;;;;3.33;2.40;;;;;;;;;;5031593;28;20450;-75
2021/04/13 09:42:28;;;;;;;7.90;3.40;;;;;;;;;;5032032;28;20430;-75
2021/04/13 09:44:54;;;;;;;3.40;2.17;;;;;;;;;;5031660;28;20392;-75
2021/04/13 09:47:49;;;;;;;4.57;2.43;;;7.70;1.00;;;;;;5021641;28;20428;-76
2021/04/13 09:50:33;;;;;;;2.60;1.93;;;;;;;;;;5011764;28;20451;-75
2021/04/13 09:53:11;;;;;;;3.50;2.40;;;;;;;;;;5023300;28;20437;-75
2021/04/13 09:55:55;;;;;;;3.57;2.50;;;;;;;;;;5031733;28;20403;-75
2021/04/13 09:58:36;;;;;;;2.70;2.30;;;8.90;1.00;;;;;;4995542;28;20431;-76
2021/04/13 10:01:04;;;;;;;3.33;2.70;;;9.50;1.00;;;;;;5021608;28;20432;-75
2021/04/13 10:03:52;;;;;;;1.90;1.47;;;9.50;1.00;;;;;;5020337;28;20492;-75
2021/04/13 10:06:33;;;;;;;4.43;2.07;;;9.70;1.00;;;;;;5038882;28;20437;-75
2021/04/13 10:09:25;;;;;;;2.77;1.50;;;9.90;1.00;;;;;;5066068;28;20590;-76
2021/04/13 10:12:08;;;;;;;7.13;2.20;;;9.80;1.00;;;;;;5028950;28;20462;-75
2021/04/13 10:15:19;;;;;;;7.90;1.80;;;9.60;1.00;;;;;;5012446;28;20877;-75
2021/04/13 10:17:49;;;;;;;3.30;1.50;;;;;;;;;;4991749;28;20468;-75
2021/04/13 10:20:31;;;;;;;2.73;1.47;;;;;;;;;;5011381;28;20436;-75
2021/04/13 10:23:03;;;;;;;1.50;1.03;;;;;;;;;;5003615;28;20971;-75
2021/04/13 10:25:56;;;;;;;4.03;1.70;;;8.90;1.00;;;;;;4992449;28;20428;-75
2021/04/13 10:28:28;;;;;;;3.00;1.33;;;;;;;;;;4991803;28;20460;-75
2021/04/13 10:30:54;;;;;;;2.00;1.40;;;;;;;;;;4992425;28;20409;-75
2021/04/13 10:33:26;;;;;;;2.53;1.30;;;;;;;;;;4992634;28;20389;-75
2021/04/13 10:36:09;;;;;;;0.90;0.90;;;;;;;;;;4991811;28;20425;-75
2021/04/13 10:38:37;;;;;;;1.07;0.93;;;;;;;;;;4991567;28;20584;-76
2021/04/13 10:41:09;;;;;;;2.20;0.83;;;;;;;;;;4992628;28;20756;-75
2021/04/13 10:44:16;;;;;;;3.10;0.70;;;9.50;1.00;;;;;;4992334;28;20428;-75
2021/04/13 10:46:54;;;;;;;1.13;1.00;;;;;;;;;;4987618;28;20414;-75
2021/04/13 10:49:42;;;;;;;1.47;0.90;;;;;;;;;;4985906;28;20924;-75
2021/04/13 10:52:11;;;;;;;7.20;1.00;;;;;;;;;;4996788;28;20444;-75
2021/04/13 10:55:12;;;;;;;2.93;0.70;;;10.10;1.00;;;;;;5019238;28;20447;-75
2021/04/13 10:58:00;;;;;;;1.37;1.10;;;9.70;1.00;;;;;;5046741;28;20437;-75
2021/04/13 11:00:29;;;;;;;1.93;0.97;;;;;;;;;;5045770;28;20502;-74
2021/04/13 11:03:11;;;;;;;2.60;1.00;;;10.10;1.00;;;;;;5033894;28;20438;-74
2021/04/13 11:05:37;;;;;;;5.00;1.63;;;;;;;;;;5033586;28;20431;-74
2021/04/13 11:08:21;;;;;;;2.03;1.10;;;;;;;;;;5038897;28;20864;-74
2021/04/13 11:10:56;;;;;;;3.27;1.10;;;;;;;;;;5046509;28;20481;-76
2021/04/13 11:13:31;;;;;;;5.00;1.37;;;;;;;;;;5058017;28;20390;-78
2021/04/13 11:16:24;;;;;;;2.77;1.10;;;10.30;1.00;;;;;;5057488;28;20386;-84
2021/04/13 11:19:30;;;;;;;2.27;1.10;;;10.40;1.00;;;;;;5037608;28;20490;-84
2021/04/13 11:22:33;;;;;;;36.40;4.33;;;10.60;1.00;;;;;;5067130;28;20471;-74
2021/04/13 11:25:30;;;;;;;48.53;5.63;;;11.00;1.00;;;;;;5036790;28;20444;-75
2021/04/13 11:28:20;;;;;;;2.97;1.20;;;11.20;1.00;;;;;;5052881;28;20442;-75
2021/04/13 11:30:54;;;;;;;8.13;1.47;;;11.70;1.00;;;;;;5058881;28;20955;-75
2021/04/13 11:33:48;;;;;;;2.83;1.67;;;11.90;1.00;;;;;;5039298;28;20421;-76
2021/04/13 11:36:51;;;;;;;4.63;1.33;;;11.90;1.00;;;;;;5068432;28;20519;-75
2021/04/13 11:39:47;;;;;;;3.47;1.30;;;11.90;1.00;;;;;;5075022;28;20405;-75
2021/04/13 11:42:15;;;;;;;1.40;1.30;;;11.70;1.00;;;;;;5063531;28;20456;-75
2021/04/13 11:44:56;;;;;;;3.47;1.27;;;11.60;1.00;;;;;;5051199;28;20431;-75
2021/04/13 11:47:44;;;;;;;1.87;1.30;;;11.20;1.00;;;;;;5053053;28;20422;-75
2021/04/13 11:50:28;;;;;;;1.67;1.20;;;;;;;;;;5055684;28;20464;-75
2021/04/13 11:53:05;;;;;;;4.73;1.50;;;10.80;1.00;;;;;;5073273;28;20421;-76
2021/04/13 11:55:32;;;;;;;2.20;1.90;;;;;;;;;;5071980;28;20416;-75
2021/04/13 11:58:15;;;;;;;3.93;1.20;;;10.90;1.00;;;;;;5055091;28;20410;-75
2021/04/13 12:00:42;;;;;;;1.83;1.30;;;10.90;1.00;;;;;;5069404;28;20471;-75
2021/04/13 12:03:23;;;;;;;8.83;2.03;;;11.00;1.00;;;;;;5048603;28;20504;-75
2021/04/13 12:05:55;;;;;;;5.80;1.80;;;11.00;1.00;;;;;;5046867;28;20425;-75
2021/04/13 12:08:29;;;;;;;2.73;1.50;;;;;;;;;;5057958;28;20461;-76
2021/04/13 12:11:00;;;;;;;2.10;1.50;;;11.20;1.00;;;;;;5063556;28;20993;-76
2021/04/13 12:13:37;;;;;;;4.20;1.37;;;11.10;1.00;;;;;;5048547;28;20806;-70
2021/04/13 12:16:03;;;;;;;1.77;1.30;;;;;;;;;;5053993;28;20504;-72
2021/04/13 12:18:39;;;;;;;1.30;1.30;;;11.10;1.00;;;;;;5059070;28;20426;-72
2021/04/13 12:21:25;;;;;;;2.23;1.30;;;;;;;;;;5058464;28;20437;-72
2021/04/13 12:23:53;;;;;;;2.37;1.70;;;11.10;1.00;;;;;;5050780;28;20804;-72
2021/04/13 12:26:36;;;;;;;2.70;1.60;;;11.30;1.00;;;;;;5055212;28;20485;-72
2021/04/13 12:29:27;;;;;;;8.53;2.60;;;11.40;1.00;;;;;;5056924;28;20461;-72
2021/04/13 12:32:11;;;;;;;2.50;1.77;;;11.40;1.00;;;;;;5066538;28;20404;-72
2021/04/13 12:34:46;;;;;;;9.60;1.83;;;;;;;;;;5054610;28;20822;-72
2021/04/13 12:37:37;;;;;;;6.17;1.60;;;11.00;1.00;;;;;;5055860;28;20417;-72
2021/04/13 12:40:24;;;;;;;2.50;1.50;;;;;;;;;;5065038;28;20413;-72
2021/04/13 12:43:03;;;;;;;1.90;1.53;;;11.00;1.00;;;;;;5074977;28;20423;-72
2021/04/13 12:45:39;;;;;;;3.63;1.73;;;11.10;1.00;;;;;;5069680;28;20436;-71
2021/04/13 12:48:39;;;;;;;1.10;1.00;;;11.00;1.00;;;;;;5075840;28;20393;-71
2021/04/13 12:51:05;;;;;;;1.50;1.20;;;;;;;;;;5073072;28;20510;-72
2021/04/13 12:53:31;;;;;;;1.00;1.00;;;;;;;;;;5075504;28;20866;-72
2021/04/13 12:56:11;;;;;;;4.30;1.00;;;11.70;1.00;;;;;;5069512;28;20442;-72
2021/04/13 12:58:39;;;;;;;1.10;0.90;;;11.90;1.00;;;;;;5055819;28;20390;-72
2021/04/13 13:01:06;;;;;;;1.00;0.90;;;11.80;1.00;;;;;;5055503;28;20716;-72
2021/04/13 13:03:39;;;;;;;3.50;1.70;;;11.70;1.00;;;;;;5044573;28;20439;-72
2021/04/13 13:06:27;;;;;;;2.77;1.10;;;11.60;1.00;;;;;;5061609;28;20909;-72
2021/04/13 13:08:59;;;;;;;3.93;1.43;;;11.80;1.00;;;;;;5075182;28;20827;-72
2021/04/13 13:11:25;;;;;;;2.50;1.20;;;;;;;;;;5074643;28;20856;-72
2021/04/13 13:13:52;;;;;;;1.33;0.90;;;12.00;1.00;;;;;;5061072;28;20383;-76
2021/04/13 13:16:31;;;;;;;3.13;1.10;;;12.00;1.00;;;;;;5071881;28;20421;-77
2021/04/13 13:18:58;;;;;;;0.80;0.80;;;12.00;1.00;;;;;;5057005;28;20471;-76
2021/04/13 13:21:27;;;;;;;6.93;1.70;;;11.90;1.00;;;;;;5073834;28;20423;-76
2021/04/13 13:23:57;;;;;;;0.83;0.80;;;11.80;1.00;;;;;;5075326;28;20405;-76
2021/04/13 13:26:26;;;;;;;2.30;0.90;;;11.70;1.00;;;;;;5072046;28;20491;-76
2021/04/13 13:28:52;;;;;;;1.70;1.10;;;11.30;1.00;;;;;;5064156;28;20422;-72
2021/04/13 13:31:33;;;;;;;1.77;1.17;;;11.30;1.00;;;;;;5072375;28;20470;-72
2021/04/13 13:34:00;;;;;;;1.60;0.90;;;11.20;1.00;;;;;;5074033;28;20155;-72
2021/04/13 13:36:30;;;;;;;1.87;1.30;;;11.20;1.00;;;;;;5064060;28;20468;-73
2021/04/13 13:39:09;;;;;;;2.70;1.20;;;11.40;1.00;;;;;;5054751;28;20398;-73
2021/04/13 13:41:44;;;;;;;3.80;1.47;;;11.70;1.00;;;;;;5074557;28;20520;-72
2021/04/13 13:44:26;;;;;;;1.93;1.00;;;12.10;1.00;;;;;;5074995;28;20971;-76
2021/04/13 13:47:07;;;;;;;1.10;1.10;;;12.10;1.00;;;;;;5072672;28;20424;-76
2021/04/13 13:49:43;;;;;;;5.30;1.23;;;12.20;1.00;;;;;;5054810;28;20941;-77
2021/04/13 13:52:35;;;;;;;0.80;0.80;;;12.20;1.00;;;;;;5055028;28;20398;-77
2021/04/13 13:55:25;;;;;;;0.90;0.70;;;12.20;1.00;;;;;;5032782;28;20426;-77
2021/04/13 13:58:29;;;;;;;2.83;0.90;;;11.90;1.00;;;;;;5032883;28;20457;-76
2021/04/13 14:01:04;;;;;;;1.53;0.80;;;11.70;1.00;;;;;;4934308;29;20453;-75
2021/04/13 14:03:42;;;;;;;2.00;0.93;;;11.70;1.00;;;;;;4933554;29;20415;-75
2021/04/13 14:06:15;;;;;;;2.70;1.00;;;11.80;1.00;;;;;;4925437;29;20448;-74
2021/04/13 14:08:42;;;;;;;3.33;0.77;;;11.70;1.00;;;;;;4932569;29;20442;-75
2021/04/13 14:11:32;;;;;;;0.90;0.70;;;11.60;1.00;;;;;;4933964;29;20443;-76
2021/04/13 14:14:28;;;;;;;0.90;0.63;;;11.80;1.00;;;;;;4934827;29;20436;-76
2021/04/13 14:17:13;;;;;;;0.80;0.80;;;11.80;1.00;;;;;;4935245;29;20392;-78
2021/04/13 14:19:39;;;;;;;1.67;1.00;;;11.70;1.00;;;;;;4935161;29;20431;-79
2021/04/13 14:22:26;;;;;;;6.63;1.20;;;11.60;1.00;;;;;;4934402;29;20414;-77
2021/04/13 14:25:36;;;;;;;1.93;0.70;;;11.30;1.00;;;;;;4934382;29;20195;-82
2021/04/13 14:28:20;;;;;;;2.67;0.70;;;11.30;1.00;;;;;;4935413;29;20866;-74
2021/04/13 14:30:47;;;;;;;1.07;0.90;;;11.40;1.00;;;;;;4933782;29;21015;-80
2021/04/13 14:33:25;;;;;;;1.50;0.83;;;;;;;;;;4957993;28;20430;-75